Myrtle Beach, South Carolina
Current Conditions -  °F | °C
As of 10:45 AM on Sunday 23 Nov 2014 (Local Time) from KMYR Reporting Station
Light Rain Light Rain  
Wind Chill: 61°   Ceiling: 8000
Heat Index: 61°   Visibility: 3mi
Dew Point: 55°   Wind: 17mph
Humidity: 82%   Direction: 90°E
Pressure: 30.14"   Gusts: NA
Location:  33.69°N, 78.88°W
Report Text: KMYR 231545Z 09015KT 3SM -RABR FEW050 SCT070 OVC080 16/13 A3014
Loading
Personal Weather Stations






























Interactive Weather Map New forecast layout! Learn more

10-Day Weather Forecast

Advertisements
Track Severe Weather on mobile